sensor_id;sensor_type;location;lat;lon;timestamp;P1;durP1;ratioP1;P2;durP2;ratioP2
85156;SDS011;75524;50.698;7.196;2024-03-23T00:54:13;17.07;;;5.27;;
85156;SDS011;75524;50.698;7.196;2024-03-23T00:56:38;21.50;;;7.37;;
85156;SDS011;75524;50.698;7.196;2024-03-23T00:59:03;21.97;;;7.13;;
85156;SDS011;75524;50.698;7.196;2024-03-23T01:01:29;19.27;;;6.30;;
85156;SDS011;75524;50.698;7.196;2024-03-23T01:03:55;22.13;;;7.23;;
85156;SDS011;75524;50.698;7.196;2024-03-23T01:06:21;27.10;;;7.33;;
85156;SDS011;75524;50.698;7.196;2024-03-23T01:08:46;27.37;;;7.73;;
85156;SDS011;75524;50.698;7.196;2024-03-23T01:11:12;27.73;;;8.03;;
85156;SDS011;75524;50.698;7.196;2024-03-23T01:13:37;30.23;;;8.33;;
85156;SDS011;75524;50.698;7.196;2024-03-23T01:16:03;33.67;;;9.57;;
85156;SDS011;75524;50.698;7.196;2024-03-23T01:18:28;29.90;;;8.90;;
85156;SDS011;75524;50.698;7.196;2024-03-23T01:20:54;32.23;;;9.13;;
85156;SDS011;75524;50.698;7.196;2024-03-23T01:23:20;24.00;;;9.20;;
85156;SDS011;75524;50.698;7.196;2024-03-23T01:25:55;32.20;;;9.00;;
85156;SDS011;75524;50.698;7.196;2024-03-23T01:28:20;23.20;;;8.50;;
85156;SDS011;75524;50.698;7.196;2024-03-23T01:30:46;31.80;;;9.03;;
85156;SDS011;75524;50.698;7.196;2024-03-23T01:33:12;24.57;;;8.83;;
85156;SDS011;75524;50.698;7.196;2024-03-23T01:35:38;38.97;;;10.47;;
85156;SDS011;75524;50.698;7.196;2024-03-23T01:38:03;21.20;;;7.50;;
85156;SDS011;75524;50.698;7.196;2024-03-23T01:40:29;30.87;;;9.27;;
85156;SDS011;75524;50.698;7.196;2024-03-23T01:43:04;23.80;;;8.43;;
85156;SDS011;75524;50.698;7.196;2024-03-23T01:45:31;23.77;;;7.63;;
85156;SDS011;75524;50.698;7.196;2024-03-23T01:47:58;32.63;;;8.77;;
85156;SDS011;75524;50.698;7.196;2024-03-23T01:50:24;28.97;;;9.60;;
85156;SDS011;75524;50.698;7.196;2024-03-23T01:52:50;28.80;;;8.60;;
85156;SDS011;75524;50.698;7.196;2024-03-23T01:55:16;25.57;;;8.37;;
85156;SDS011;75524;50.698;7.196;2024-03-23T01:57:41;19.17;;;6.40;;
85156;SDS011;75524;50.698;7.196;2024-03-23T02:00:07;26.80;;;8.40;;
85156;SDS011;75524;50.698;7.196;2024-03-23T02:02:35;32.33;;;7.00;;
85156;SDS011;75524;50.698;7.196;2024-03-23T02:05:00;28.73;;;8.13;;
85156;SDS011;75524;50.698;7.196;2024-03-23T02:07:26;23.93;;;6.03;;
85156;SDS011;75524;50.698;7.196;2024-03-23T02:09:52;22.53;;;6.27;;
85156;SDS011;75524;50.698;7.196;2024-03-23T02:12:18;18.80;;;7.03;;
85156;SDS011;75524;50.698;7.196;2024-03-23T02:14:43;21.27;;;5.77;;
85156;SDS011;75524;50.698;7.196;2024-03-23T02:17:09;23.17;;;6.30;;
85156;SDS011;75524;50.698;7.196;2024-03-23T02:19:35;18.97;;;6.83;;
85156;SDS011;75524;50.698;7.196;2024-03-23T02:22:00;19.30;;;5.87;;
85156;SDS011;75524;50.698;7.196;2024-03-23T02:24:26;20.07;;;6.30;;
85156;SDS011;75524;50.698;7.196;2024-03-23T02:26:51;16.00;;;5.13;;
85156;SDS011;75524;50.698;7.196;2024-03-23T02:29:17;18.10;;;4.97;;
85156;SDS011;75524;50.698;7.196;2024-03-23T02:31:42;15.13;;;5.00;;
85156;SDS011;75524;50.698;7.196;2024-03-23T02:34:08;16.50;;;4.10;;
85156;SDS011;75524;50.698;7.196;2024-03-23T02:36:33;12.33;;;3.70;;
85156;SDS011;75524;50.698;7.196;2024-03-23T02:38:59;5.33;;;2.57;;
85156;SDS011;75524;50.698;7.196;2024-03-23T02:41:25;13.17;;;3.30;;
85156;SDS011;75524;50.698;7.196;2024-03-23T02:43:50;8.50;;;3.00;;
85156;SDS011;75524;50.698;7.196;2024-03-23T02:46:16;5.00;;;2.27;;
85156;SDS011;75524;50.698;7.196;2024-03-23T02:48:41;7.80;;;2.63;;
85156;SDS011;75524;50.698;7.196;2024-03-23T02:51:07;5.73;;;2.20;;
85156;SDS011;75524;50.698;7.196;2024-03-23T02:53:32;13.37;;;3.13;;
85156;SDS011;75524;50.698;7.196;2024-03-23T02:55:58;14.77;;;3.40;;
85156;SDS011;75524;50.698;7.196;2024-03-23T02:58:24;10.70;;;3.57;;
85156;SDS011;75524;50.698;7.196;2024-03-23T03:00:49;11.07;;;3.53;;
85156;SDS011;75524;50.698;7.196;2024-03-23T03:03:15;7.63;;;3.33;;
85156;SDS011;75524;50.698;7.196;2024-03-23T03:05:41;7.87;;;2.77;;
85156;SDS011;75524;50.698;7.196;2024-03-23T03:08:06;8.47;;;3.20;;
85156;SDS011;75524;50.698;7.196;2024-03-23T03:10:32;11.57;;;3.80;;
85156;SDS011;75524;50.698;7.196;2024-03-23T03:13:00;5.63;;;2.73;;
85156;SDS011;75524;50.698;7.196;2024-03-23T03:15:26;9.27;;;1.53;;
85156;SDS011;75524;50.698;7.196;2024-03-23T03:17:51;8.23;;;3.20;;
85156;SDS011;75524;50.698;7.196;2024-03-23T03:20:17;4.87;;;2.17;;
85156;SDS011;75524;50.698;7.196;2024-03-23T03:22:43;11.97;;;2.53;;
85156;SDS011;75524;50.698;7.196;2024-03-23T03:25:09;5.73;;;2.03;;
85156;SDS011;75524;50.698;7.196;2024-03-23T03:27:35;5.50;;;2.43;;
85156;SDS011;75524;50.698;7.196;2024-03-23T03:30:00;12.73;;;3.70;;
85156;SDS011;75524;50.698;7.196;2024-03-23T03:32:30;12.63;;;3.47;;
85156;SDS011;75524;50.698;7.196;2024-03-23T03:34:55;10.97;;;2.53;;
85156;SDS011;75524;50.698;7.196;2024-03-23T03:37:21;8.77;;;2.57;;
85156;SDS011;75524;50.698;7.196;2024-03-23T03:39:46;11.87;;;2.70;;
85156;SDS011;75524;50.698;7.196;2024-03-23T03:42:12;8.50;;;2.20;;
85156;SDS011;75524;50.698;7.196;2024-03-23T03:44:37;3.03;;;1.47;;
85156;SDS011;75524;50.698;7.196;2024-03-23T03:47:03;3.70;;;2.10;;
85156;SDS011;75524;50.698;7.196;2024-03-23T03:49:30;6.20;;;2.97;;
85156;SDS011;75524;50.698;7.196;2024-03-23T03:51:56;9.00;;;2.70;;
85156;SDS011;75524;50.698;7.196;2024-03-23T03:54:21;10.13;;;3.00;;
85156;SDS011;75524;50.698;7.196;2024-03-23T03:56:47;8.83;;;2.57;;
85156;SDS011;75524;50.698;7.196;2024-03-23T03:59:13;4.77;;;1.97;;
85156;SDS011;75524;50.698;7.196;2024-03-23T04:01:38;10.70;;;2.77;;
85156;SDS011;75524;50.698;7.196;2024-03-23T04:04:03;11.77;;;2.80;;
85156;SDS011;75524;50.698;7.196;2024-03-23T04:06:29;7.63;;;2.40;;
85156;SDS011;75524;50.698;7.196;2024-03-23T04:08:55;12.13;;;2.37;;
85156;SDS011;75524;50.698;7.196;2024-03-23T04:11:20;4.70;;;2.23;;
85156;SDS011;75524;50.698;7.196;2024-03-23T04:13:45;12.93;;;2.30;;
85156;SDS011;75524;50.698;7.196;2024-03-23T04:16:11;9.60;;;2.97;;
85156;SDS011;75524;50.698;7.196;2024-03-23T04:18:36;7.33;;;2.47;;
85156;SDS011;75524;50.698;7.196;2024-03-23T04:21:02;6.27;;;2.23;;
85156;SDS011;75524;50.698;7.196;2024-03-23T04:23:28;14.97;;;3.30;;
85156;SDS011;75524;50.698;7.196;2024-03-23T04:25:53;11.30;;;2.10;;
85156;SDS011;75524;50.698;7.196;2024-03-23T04:28:19;11.40;;;2.27;;
85156;SDS011;75524;50.698;7.196;2024-03-23T04:30:45;7.37;;;2.70;;
85156;SDS011;75524;50.698;7.196;2024-03-23T04:33:10;10.97;;;2.67;;
85156;SDS011;75524;50.698;7.196;2024-03-23T04:35:36;15.13;;;2.20;;
85156;SDS011;75524;50.698;7.196;2024-03-23T04:38:01;11.40;;;2.30;;
85156;SDS011;75524;50.698;7.196;2024-03-23T04:40:27;6.47;;;2.30;;
85156;SDS011;75524;50.698;7.196;2024-03-23T04:42:52;6.23;;;1.80;;
85156;SDS011;75524;50.698;7.196;2024-03-23T04:45:18;6.17;;;1.87;;
85156;SDS011;75524;50.698;7.196;2024-03-23T04:47:43;15.67;;;2.57;;
85156;SDS011;75524;50.698;7.196;2024-03-23T04:50:09;6.03;;;1.97;;
85156;SDS011;75524;50.698;7.196;2024-03-23T04:52:36;12.13;;;2.07;;
85156;SDS011;75524;50.698;7.196;2024-03-23T04:55:01;11.53;;;2.93;;
85156;SDS011;75524;50.698;7.196;2024-03-23T04:57:27;12.30;;;2.83;;
85156;SDS011;75524;50.698;7.196;2024-03-23T04:59:52;6.87;;;2.47;;
85156;SDS011;75524;50.698;7.196;2024-03-23T05:02:18;13.13;;;2.57;;
85156;SDS011;75524;50.698;7.196;2024-03-23T05:04:43;12.70;;;3.10;;
85156;SDS011;75524;50.698;7.196;2024-03-23T05:07:09;12.33;;;3.07;;
85156;SDS011;75524;50.698;7.196;2024-03-23T05:09:34;16.10;;;2.90;;
85156;SDS011;75524;50.698;7.196;2024-03-23T05:12:00;2.87;;;1.63;;
85156;SDS011;75524;50.698;7.196;2024-03-23T05:14:26;7.37;;;2.10;;
85156;SDS011;75524;50.698;7.196;2024-03-23T05:16:52;11.83;;;1.63;;
85156;SDS011;75524;50.698;7.196;2024-03-23T05:19:18;7.03;;;1.93;;
85156;SDS011;75524;50.698;7.196;2024-03-23T05:21:43;13.27;;;2.73;;
85156;SDS011;75524;50.698;7.196;2024-03-23T05:24:09;6.13;;;2.00;;
85156;SDS011;75524;50.698;7.196;2024-03-23T05:26:35;12.70;;;2.33;;
85156;SDS011;75524;50.698;7.196;2024-03-23T05:29:01;12.20;;;1.83;;
85156;SDS011;75524;50.698;7.196;2024-03-23T05:31:28;4.43;;;1.87;;
85156;SDS011;75524;50.698;7.196;2024-03-23T05:33:55;14.27;;;1.77;;
85156;SDS011;75524;50.698;7.196;2024-03-23T05:36:21;6.17;;;1.67;;
85156;SDS011;75524;50.698;7.196;2024-03-23T05:38:47;1.60;;;1.10;;
85156;SDS011;75524;50.698;7.196;2024-03-23T05:41:12;5.87;;;1.90;;
85156;SDS011;75524;50.698;7.196;2024-03-23T05:43:38;11.90;;;1.97;;
85156;SDS011;75524;50.698;7.196;2024-03-23T05:46:03;13.80;;;2.33;;
85156;SDS011;75524;50.698;7.196;2024-03-23T05:48:33;4.93;;;2.10;;
85156;SDS011;75524;50.698;7.196;2024-03-23T05:50:58;10.43;;;2.20;;
85156;SDS011;75524;50.698;7.196;2024-03-23T05:53:24;18.47;;;2.13;;
85156;SDS011;75524;50.698;7.196;2024-03-23T05:55:50;6.57;;;1.93;;
85156;SDS011;75524;50.698;7.196;2024-03-23T05:58:18;14.97;;;2.67;;
85156;SDS011;75524;50.698;7.196;2024-03-23T06:00:45;13.73;;;2.60;;
85156;SDS011;75524;50.698;7.196;2024-03-23T06:03:11;13.30;;;1.90;;
85156;SDS011;75524;50.698;7.196;2024-03-23T06:05:37;8.07;;;1.70;;
85156;SDS011;75524;50.698;7.196;2024-03-23T06:08:03;5.47;;;1.97;;
85156;SDS011;75524;50.698;7.196;2024-03-23T06:10:29;7.70;;;1.57;;
85156;SDS011;75524;50.698;7.196;2024-03-23T06:12:55;10.83;;;1.77;;
85156;SDS011;75524;50.698;7.196;2024-03-23T06:15:21;13.40;;;2.10;;
85156;SDS011;75524;50.698;7.196;2024-03-23T06:17:47;11.57;;;1.97;;
85156;SDS011;75524;50.698;7.196;2024-03-23T06:20:13;5.90;;;2.07;;
85156;SDS011;75524;50.698;7.196;2024-03-23T06:22:39;12.80;;;2.00;;
85156;SDS011;75524;50.698;7.196;2024-03-23T06:25:05;3.40;;;1.47;;
85156;SDS011;75524;50.698;7.196;2024-03-23T06:27:32;3.83;;;1.57;;
85156;SDS011;75524;50.698;7.196;2024-03-23T06:29:58;10.07;;;2.53;;
85156;SDS011;75524;50.698;7.196;2024-03-23T06:32:24;4.70;;;1.90;;
85156;SDS011;75524;50.698;7.196;2024-03-23T06:34:49;12.40;;;2.33;;
85156;SDS011;75524;50.698;7.196;2024-03-23T06:37:15;4.57;;;1.60;;
85156;SDS011;75524;50.698;7.196;2024-03-23T06:39:40;11.00;;;1.83;;
85156;SDS011;75524;50.698;7.196;2024-03-23T06:42:06;11.30;;;1.70;;
85156;SDS011;75524;50.698;7.196;2024-03-23T06:44:33;15.63;;;2.40;;
85156;SDS011;75524;50.698;7.196;2024-03-23T06:46:59;5.73;;;2.23;;
85156;SDS011;75524;50.698;7.196;2024-03-23T06:49:24;21.63;;;2.57;;
85156;SDS011;75524;50.698;7.196;2024-03-23T06:51:49;6.37;;;1.60;;
85156;SDS011;75524;50.698;7.196;2024-03-23T06:54:19;10.27;;;4.07;;
85156;SDS011;75524;50.698;7.196;2024-03-23T06:56:44;13.33;;;2.63;;
85156;SDS011;75524;50.698;7.196;2024-03-23T06:59:10;6.07;;;1.63;;
85156;SDS011;75524;50.698;7.196;2024-03-23T07:01:36;2.63;;;1.47;;
85156;SDS011;75524;50.698;7.196;2024-03-23T07:04:02;11.20;;;2.30;;
85156;SDS011;75524;50.698;7.196;2024-03-23T07:06:29;10.77;;;2.33;;
85156;SDS011;75524;50.698;7.196;2024-03-23T07:08:57;8.90;;;2.53;;
85156;SDS011;75524;50.698;7.196;2024-03-23T07:11:23;14.00;;;2.50;;
85156;SDS011;75524;50.698;7.196;2024-03-23T07:13:49;13.93;;;2.10;;
85156;SDS011;75524;50.698;7.196;2024-03-23T07:16:16;16.17;;;1.97;;
85156;SDS011;75524;50.698;7.196;2024-03-23T07:18:42;9.90;;;2.67;;
85156;SDS011;75524;50.698;7.196;2024-03-23T07:21:08;8.60;;;2.60;;
85156;SDS011;75524;50.698;7.196;2024-03-23T07:23:33;12.33;;;2.90;;
85156;SDS011;75524;50.698;7.196;2024-03-23T07:26:03;11.57;;;2.60;;
85156;SDS011;75524;50.698;7.196;2024-03-23T07:28:33;8.77;;;3.10;;
85156;SDS011;75524;50.698;7.196;2024-03-23T07:31:12;11.23;;;2.80;;
85156;SDS011;75524;50.698;7.196;2024-03-23T07:36:09;5.93;;;2.23;;
85156;SDS011;75524;50.698;7.196;2024-03-23T07:38:35;11.77;;;2.83;;
85156;SDS011;75524;50.698;7.196;2024-03-23T07:41:04;18.17;;;4.53;;
85156;SDS011;75524;50.698;7.196;2024-03-23T07:43:30;16.60;;;3.67;;
85156;SDS011;75524;50.698;7.196;2024-03-23T07:45:55;4.77;;;2.33;;
85156;SDS011;75524;50.698;7.196;2024-03-23T07:48:21;11.87;;;2.93;;
85156;SDS011;75524;50.698;7.196;2024-03-23T07:51:03;14.00;;;3.53;;
85156;SDS011;75524;50.698;7.196;2024-03-23T07:53:30;18.38;;;4.38;;
85156;SDS011;75524;50.698;7.196;2024-03-23T07:55:57;18.73;;;3.70;;
85156;SDS011;75524;50.698;7.196;2024-03-23T07:58:32;12.20;;;4.07;;
85156;SDS011;75524;50.698;7.196;2024-03-23T08:01:05;10.00;;;2.87;;
85156;SDS011;75524;50.698;7.196;2024-03-23T08:03:38;11.40;;;2.90;;
85156;SDS011;75524;50.698;7.196;2024-03-23T08:06:17;25.60;;;3.67;;
85156;SDS011;75524;50.698;7.196;2024-03-23T08:08:45;10.80;;;2.53;;
85156;SDS011;75524;50.698;7.196;2024-03-23T08:11:12;5.70;;;2.67;;
85156;SDS011;75524;50.698;7.196;2024-03-23T08:13:41;18.67;;;3.00;;
85156;SDS011;75524;50.698;7.196;2024-03-23T08:16:08;10.87;;;3.77;;
85156;SDS011;75524;50.698;7.196;2024-03-23T08:18:37;23.47;;;4.03;;
85156;SDS011;75524;50.698;7.196;2024-03-23T08:21:03;8.47;;;3.17;;
85156;SDS011;75524;50.698;7.196;2024-03-23T08:23:30;7.07;;;1.40;;
85156;SDS011;75524;50.698;7.196;2024-03-23T08:26:02;6.90;;;1.70;;
85156;SDS011;75524;50.698;7.196;2024-03-23T08:28:35;4.60;;;1.10;;
85156;SDS011;75524;50.698;7.196;2024-03-23T08:31:02;4.60;;;1.10;;
85156;SDS011;75524;50.698;7.196;2024-03-23T08:33:30;4.23;;;1.53;;
85156;SDS011;75524;50.698;7.196;2024-03-23T08:36:00;2.23;;;1.30;;
85156;SDS011;75524;50.698;7.196;2024-03-23T08:38:27;1.47;;;0.83;;
85156;SDS011;75524;50.698;7.196;2024-03-23T08:41:06;7.00;;;1.40;;
85156;SDS011;75524;50.698;7.196;2024-03-23T08:43:33;8.60;;;1.20;;
85156;SDS011;75524;50.698;7.196;2024-03-23T08:46:04;1.00;;;0.97;;
85156;SDS011;75524;50.698;7.196;2024-03-23T08:48:46;3.10;;;1.10;;
85156;SDS011;75524;50.698;7.196;2024-03-23T08:51:14;3.17;;;1.10;;
85156;SDS011;75524;50.698;7.196;2024-03-23T08:53:41;2.27;;;1.37;;
85156;SDS011;75524;50.698;7.196;2024-03-23T08:56:08;4.73;;;1.50;;
85156;SDS011;75524;50.698;7.196;2024-03-23T08:58:34;9.73;;;1.37;;
85156;SDS011;75524;50.698;7.196;2024-03-23T09:01:11;10.07;;;0.97;;
85156;SDS011;75524;50.698;7.196;2024-03-23T09:03:41;3.07;;;1.30;;
85156;SDS011;75524;50.698;7.196;2024-03-23T09:06:07;3.43;;;1.30;;
85156;SDS011;75524;50.698;7.196;2024-03-23T09:08:36;5.50;;;1.20;;
85156;SDS011;75524;50.698;7.196;2024-03-23T09:11:05;7.90;;;2.13;;
85156;SDS011;75524;50.698;7.196;2024-03-23T09:13:32;6.83;;;2.20;;
85156;SDS011;75524;50.698;7.196;2024-03-23T09:15:58;10.37;;;2.60;;
85156;SDS011;75524;50.698;7.196;2024-03-23T09:18:24;10.53;;;2.60;;
85156;SDS011;75524;50.698;7.196;2024-03-23T09:20:49;10.20;;;3.23;;
85156;SDS011;75524;50.698;7.196;2024-03-23T09:23:15;13.87;;;3.97;;
85156;SDS011;75524;50.698;7.196;2024-03-23T09:25:40;8.67;;;3.87;;
85156;SDS011;75524;50.698;7.196;2024-03-23T09:28:06;13.73;;;3.83;;
85156;SDS011;75524;50.698;7.196;2024-03-23T09:30:34;15.47;;;4.27;;
85156;SDS011;75524;50.698;7.196;2024-03-23T09:32:59;24.97;;;3.57;;
85156;SDS011;75524;50.698;7.196;2024-03-23T09:35:26;13.70;;;3.67;;
85156;SDS011;75524;50.698;7.196;2024-03-23T09:37:52;12.10;;;3.57;;
85156;SDS011;75524;50.698;7.196;2024-03-23T09:40:17;13.50;;;3.70;;
85156;SDS011;75524;50.698;7.196;2024-03-23T09:42:43;8.50;;;3.27;;
85156;SDS011;75524;50.698;7.196;2024-03-23T09:45:21;11.40;;;2.43;;
85156;SDS011;75524;50.698;7.196;2024-03-23T09:47:51;6.77;;;2.67;;
85156;SDS011;75524;50.698;7.196;2024-03-23T09:50:17;6.47;;;1.93;;
85156;SDS011;75524;50.698;7.196;2024-03-23T09:52:43;12.83;;;2.00;;
85156;SDS011;75524;50.698;7.196;2024-03-23T09:55:11;10.10;;;1.73;;
85156;SDS011;75524;50.698;7.196;2024-03-23T09:57:36;11.17;;;1.93;;
85156;SDS011;75524;50.698;7.196;2024-03-23T10:00:02;9.77;;;2.37;;
85156;SDS011;75524;50.698;7.196;2024-03-23T10:02:28;9.37;;;1.80;;
85156;SDS011;75524;50.698;7.196;2024-03-23T10:04:54;8.13;;;2.13;;
85156;SDS011;75524;50.698;7.196;2024-03-23T10:07:19;8.80;;;1.70;;
85156;SDS011;75524;50.698;7.196;2024-03-23T10:09:47;11.17;;;2.00;;
85156;SDS011;75524;50.698;7.196;2024-03-23T10:12:13;9.23;;;1.67;;
85156;SDS011;75524;50.698;7.196;2024-03-23T10:14:41;5.23;;;1.30;;
85156;SDS011;75524;50.698;7.196;2024-03-23T10:17:15;4.97;;;1.57;;
85156;SDS011;75524;50.698;7.196;2024-03-23T10:19:46;4.77;;;1.03;;
85156;SDS011;75524;50.698;7.196;2024-03-23T10:22:23;6.80;;;2.30;;
85156;SDS011;75524;50.698;7.196;2024-03-23T10:24:50;7.57;;;1.53;;
85156;SDS011;75524;50.698;7.196;2024-03-23T10:27:16;9.40;;;1.63;;
85156;SDS011;75524;50.698;7.196;2024-03-23T10:29:49;4.80;;;1.20;;
85156;SDS011;75524;50.698;7.196;2024-03-23T10:32:18;3.47;;;1.20;;
85156;SDS011;75524;50.698;7.196;2024-03-23T10:34:44;9.83;;;1.57;;
85156;SDS011;75524;50.698;7.196;2024-03-23T10:37:10;8.40;;;2.20;;
85156;SDS011;75524;50.698;7.196;2024-03-23T10:39:39;4.67;;;1.53;;
85156;SDS011;75524;50.698;7.196;2024-03-23T10:42:06;3.20;;;1.73;;
85156;SDS011;75524;50.698;7.196;2024-03-23T10:44:33;2.40;;;0.87;;
85156;SDS011;75524;50.698;7.196;2024-03-23T10:46:59;1.83;;;0.80;;
85156;SDS011;75524;50.698;7.196;2024-03-23T10:49:26;1.57;;;0.50;;
85156;SDS011;75524;50.698;7.196;2024-03-23T10:51:55;0.80;;;0.60;;
85156;SDS011;75524;50.698;7.196;2024-03-23T10:54:22;0.50;;;0.50;;
85156;SDS011;75524;50.698;7.196;2024-03-23T10:56:49;0.50;;;0.50;;
85156;SDS011;75524;50.698;7.196;2024-03-23T10:59:23;0.57;;;0.57;;
85156;SDS011;75524;50.698;7.196;2024-03-23T11:01:54;1.93;;;0.63;;
85156;SDS011;75524;50.698;7.196;2024-03-23T11:04:34;0.57;;;0.57;;
85156;SDS011;75524;50.698;7.196;2024-03-23T11:07:01;1.13;;;0.70;;
85156;SDS011;75524;50.698;7.196;2024-03-23T11:09:40;3.87;;;0.80;;
85156;SDS011;75524;50.698;7.196;2024-03-23T11:12:28;2.03;;;0.60;;
85156;SDS011;75524;50.698;7.196;2024-03-23T11:15:06;0.47;;;0.47;;
85156;SDS011;75524;50.698;7.196;2024-03-23T11:17:36;0.50;;;0.50;;
85156;SDS011;75524;50.698;7.196;2024-03-23T11:20:02;6.10;;;0.70;;
85156;SDS011;75524;50.698;7.196;2024-03-23T11:22:46;0.60;;;0.60;;
85156;SDS011;75524;50.698;7.196;2024-03-23T11:27:38;3.73;;;1.00;;
85156;SDS011;75524;50.698;7.196;2024-03-23T11:30:13;4.70;;;1.30;;
85156;SDS011;75524;50.698;7.196;2024-03-23T11:32:40;2.37;;;0.93;;
85156;SDS011;75524;50.698;7.196;2024-03-23T11:35:05;3.03;;;1.00;;
85156;SDS011;75524;50.698;7.196;2024-03-23T11:37:31;4.40;;;1.10;;
85156;SDS011;75524;50.698;7.196;2024-03-23T11:39:57;5.13;;;1.73;;
85156;SDS011;75524;50.698;7.196;2024-03-23T11:42:22;1.50;;;1.10;;
85156;SDS011;75524;50.698;7.196;2024-03-23T11:44:48;2.00;;;0.77;;
85156;SDS011;75524;50.698;7.196;2024-03-23T11:47:13;1.77;;;0.80;;
85156;SDS011;75524;50.698;7.196;2024-03-23T11:49:39;0.53;;;0.50;;
85156;SDS011;75524;50.698;7.196;2024-03-23T11:52:07;1.43;;;0.90;;
85156;SDS011;75524;50.698;7.196;2024-03-23T11:54:33;5.10;;;0.93;;
85156;SDS011;75524;50.698;7.196;2024-03-23T11:56:59;1.33;;;0.90;;
85156;SDS011;75524;50.698;7.196;2024-03-23T11:59:34;5.63;;;1.63;;
85156;SDS011;75524;50.698;7.196;2024-03-23T12:02:00;3.80;;;2.00;;
85156;SDS011;75524;50.698;7.196;2024-03-23T12:04:29;3.70;;;1.53;;
85156;SDS011;75524;50.698;7.196;2024-03-23T12:09:38;2.70;;;1.67;;
85156;SDS011;75524;50.698;7.196;2024-03-23T12:12:08;2.67;;;1.20;;
85156;SDS011;75524;50.698;7.196;2024-03-23T12:14:44;3.63;;;1.60;;
85156;SDS011;75524;50.698;7.196;2024-03-23T12:17:14;3.03;;;1.80;;
85156;SDS011;75524;50.698;7.196;2024-03-23T12:19:40;4.30;;;1.27;;
85156;SDS011;75524;50.698;7.196;2024-03-23T12:22:07;3.17;;;1.50;;
85156;SDS011;75524;50.698;7.196;2024-03-23T12:24:34;6.13;;;1.77;;
85156;SDS011;75524;50.698;7.196;2024-03-23T12:27:03;4.07;;;1.33;;
85156;SDS011;75524;50.698;7.196;2024-03-23T12:29:30;6.83;;;1.87;;
85156;SDS011;75524;50.698;7.196;2024-03-23T12:32:00;3.93;;;2.00;;
85156;SDS011;75524;50.698;7.196;2024-03-23T12:34:26;3.60;;;1.60;;
85156;SDS011;75524;50.698;7.196;2024-03-23T12:36:52;4.67;;;1.63;;
85156;SDS011;75524;50.698;7.196;2024-03-23T12:39:18;4.50;;;1.83;;
85156;SDS011;75524;50.698;7.196;2024-03-23T12:41:43;2.57;;;1.60;;
85156;SDS011;75524;50.698;7.196;2024-03-23T12:44:09;6.27;;;2.17;;
85156;SDS011;75524;50.698;7.196;2024-03-23T12:46:37;8.63;;;1.80;;
85156;SDS011;75524;50.698;7.196;2024-03-23T12:49:03;4.17;;;1.87;;
85156;SDS011;75524;50.698;7.196;2024-03-23T12:51:30;2.00;;;1.60;;
85156;SDS011;75524;50.698;7.196;2024-03-23T12:53:56;5.50;;;1.43;;
85156;SDS011;75524;50.698;7.196;2024-03-23T12:56:22;3.70;;;1.40;;
85156;SDS011;75524;50.698;7.196;2024-03-23T12:58:47;3.00;;;1.13;;
85156;SDS011;75524;50.698;7.196;2024-03-23T13:01:19;3.40;;;1.33;;
85156;SDS011;75524;50.698;7.196;2024-03-23T13:03:48;1.77;;;0.80;;
85156;SDS011;75524;50.698;7.196;2024-03-23T13:06:15;3.30;;;0.87;;
85156;SDS011;75524;50.698;7.196;2024-03-23T13:08:40;2.03;;;0.70;;
85156;SDS011;75524;50.698;7.196;2024-03-23T13:11:07;3.60;;;0.90;;
85156;SDS011;75524;50.698;7.196;2024-03-23T13:13:34;1.30;;;0.73;;
85156;SDS011;75524;50.698;7.196;2024-03-23T13:16:00;5.03;;;0.90;;
85156;SDS011;75524;50.698;7.196;2024-03-23T13:18:25;1.60;;;0.93;;
85156;SDS011;75524;50.698;7.196;2024-03-23T13:20:51;0.70;;;0.70;;
85156;SDS011;75524;50.698;7.196;2024-03-23T13:23:17;2.63;;;1.10;;
85156;SDS011;75524;50.698;7.196;2024-03-23T13:25:49;1.57;;;0.90;;
85156;SDS011;75524;50.698;7.196;2024-03-23T13:28:15;1.30;;;0.77;;
85156;SDS011;75524;50.698;7.196;2024-03-23T13:30:56;1.33;;;0.80;;
85156;SDS011;75524;50.698;7.196;2024-03-23T13:33:29;1.53;;;0.90;;
85156;SDS011;75524;50.698;7.196;2024-03-23T13:35:55;3.27;;;1.07;;
85156;SDS011;75524;50.698;7.196;2024-03-23T13:38:24;1.47;;;0.80;;
85156;SDS011;75524;50.698;7.196;2024-03-23T13:43:23;0.70;;;0.70;;
85156;SDS011;75524;50.698;7.196;2024-03-23T13:45:56;1.03;;;0.70;;
85156;SDS011;75524;50.698;7.196;2024-03-23T13:48:23;2.63;;;0.90;;
85156;SDS011;75524;50.698;7.196;2024-03-23T13:50:57;2.83;;;1.30;;
85156;SDS011;75524;50.698;7.196;2024-03-23T13:53:25;3.17;;;1.93;;
85156;SDS011;75524;50.698;7.196;2024-03-23T13:55:51;2.40;;;0.80;;
85156;SDS011;75524;50.698;7.196;2024-03-23T13:58:16;1.13;;;1.00;;
85156;SDS011;75524;50.698;7.196;2024-03-23T14:00:42;1.77;;;0.80;;
85156;SDS011;75524;50.698;7.196;2024-03-23T14:03:08;1.37;;;0.80;;
85156;SDS011;75524;50.698;7.196;2024-03-23T14:05:34;4.77;;;0.70;;
85156;SDS011;75524;50.698;7.196;2024-03-23T14:08:00;2.30;;;0.90;;
85156;SDS011;75524;50.698;7.196;2024-03-23T14:10:26;1.67;;;0.73;;
85156;SDS011;75524;50.698;7.196;2024-03-23T14:12:52;1.13;;;0.87;;
85156;SDS011;75524;50.698;7.196;2024-03-23T14:15:18;8.47;;;0.90;;
85156;SDS011;75524;50.698;7.196;2024-03-23T14:17:43;4.87;;;0.90;;
85156;SDS011;75524;50.698;7.196;2024-03-23T14:20:09;1.13;;;0.80;;
85156;SDS011;75524;50.698;7.196;2024-03-23T14:22:36;3.67;;;0.90;;
85156;SDS011;75524;50.698;7.196;2024-03-23T14:25:03;2.90;;;1.20;;
85156;SDS011;75524;50.698;7.196;2024-03-23T14:27:29;3.90;;;1.93;;
85156;SDS011;75524;50.698;7.196;2024-03-23T14:29:54;2.47;;;1.13;;
85156;SDS011;75524;50.698;7.196;2024-03-23T14:32:21;3.67;;;1.20;;
85156;SDS011;75524;50.698;7.196;2024-03-23T14:34:47;4.70;;;1.10;;
85156;SDS011;75524;50.698;7.196;2024-03-23T14:37:12;6.27;;;1.50;;
85156;SDS011;75524;50.698;7.196;2024-03-23T14:39:38;10.90;;;1.30;;
85156;SDS011;75524;50.698;7.196;2024-03-23T14:42:04;4.00;;;1.40;;
85156;SDS011;75524;50.698;7.196;2024-03-23T14:44:31;3.37;;;1.60;;
85156;SDS011;75524;50.698;7.196;2024-03-23T14:46:57;7.33;;;1.40;;
85156;SDS011;75524;50.698;7.196;2024-03-23T14:49:22;2.27;;;1.20;;
85156;SDS011;75524;50.698;7.196;2024-03-23T14:51:49;1.43;;;0.60;;
85156;SDS011;75524;50.698;7.196;2024-03-23T14:54:15;3.63;;;1.00;;
85156;SDS011;75524;50.698;7.196;2024-03-23T14:56:40;7.23;;;0.93;;
85156;SDS011;75524;50.698;7.196;2024-03-23T14:59:06;4.27;;;1.07;;
85156;SDS011;75524;50.698;7.196;2024-03-23T15:01:33;4.93;;;1.40;;
85156;SDS011;75524;50.698;7.196;2024-03-23T15:03:59;2.73;;;0.80;;
85156;SDS011;75524;50.698;7.196;2024-03-23T15:06:25;1.43;;;0.90;;
85156;SDS011;75524;50.698;7.196;2024-03-23T15:08:50;9.60;;;1.40;;
85156;SDS011;75524;50.698;7.196;2024-03-23T15:11:16;1.00;;;0.90;;
85156;SDS011;75524;50.698;7.196;2024-03-23T15:13:44;1.67;;;1.33;;
85156;SDS011;75524;50.698;7.196;2024-03-23T15:16:10;2.13;;;1.30;;
85156;SDS011;75524;50.698;7.196;2024-03-23T15:18:36;4.00;;;1.67;;
85156;SDS011;75524;50.698;7.196;2024-03-23T15:21:02;2.87;;;1.37;;
85156;SDS011;75524;50.698;7.196;2024-03-23T15:23:31;1.20;;;1.10;;
85156;SDS011;75524;50.698;7.196;2024-03-23T15:25:57;3.93;;;1.40;;
85156;SDS011;75524;50.698;7.196;2024-03-23T15:28:26;1.13;;;0.90;;
85156;SDS011;75524;50.698;7.196;2024-03-23T15:31:06;2.07;;;1.30;;
85156;SDS011;75524;50.698;7.196;2024-03-23T15:33:34;0.67;;;0.60;;
85156;SDS011;75524;50.698;7.196;2024-03-23T15:36:01;0.73;;;0.73;;
85156;SDS011;75524;50.698;7.196;2024-03-23T15:38:33;4.27;;;1.23;;
85156;SDS011;75524;50.698;7.196;2024-03-23T15:40:59;0.73;;;0.73;;
85156;SDS011;75524;50.698;7.196;2024-03-23T15:43:25;0.80;;;0.80;;
85156;SDS011;75524;50.698;7.196;2024-03-23T15:45:54;4.33;;;0.80;;